CheckWX is a tool to help pilots better visualize weather data.  It is not intended as a substitute for an official pre-flight weather briefing.

13:46:18 UTC

KPIT METAR
Pittsburgh International Airport
Pittsburgh, Pennsylvania, USA
Current

55 mins ago

KPIT 311251Z 00000KT 10SM FEW011 BKN029 OVC060 04/02 A3000 RMK AO2 SLP173 T00440022
Observed
Mar-31 @ 12:51 UTC
Visibility
10 SM
Flight Rules
MVFR
Cloud Levels
  • Few at 1,100' AGL
  • Broken at 2,900' AGL
  • Overcast at 6,000' AGL
Temperature
C / 39°F
Dewpoint
C / 36°F
Humidity
87%
Altimeter
30" Hg
Pressure
1015.92 hPa
Previous

2 hours ago

KPIT 311151Z 00000KT 10SM FEW009 OVC028 04/02 A2999 RMK AO2 SLP172 60000 T00390022 10039 20033 53002
Observed
Mar-31 @ 11:51 UTC
Visibility
10 SM
Flight Rules
MVFR
Cloud Levels
  • Few at 900' AGL
  • Overcast at 2,800' AGL
Temperature
C / 39°F
Dewpoint
C / 36°F
Humidity
87%
Altimeter
29.99" Hg
Pressure
1015.62 hPa
Previous

3 hours ago

KPIT 311051Z 00000KT 10SM FEW009 OVC026 04/02 A2998 RMK AO2 SLP168 T00390022 $
Observed
Mar-31 @ 10:51 UTC
Visibility
10 SM
Flight Rules
MVFR
Cloud Levels
  • Few at 900' AGL
  • Overcast at 2,600' AGL
Temperature
C / 39°F
Dewpoint
C / 36°F
Humidity
87%
Altimeter
29.98" Hg
Pressure
1015.22 hPa